createdAt,value
2022-10-06T00:02:19.469Z,99925.13
2022-10-06T00:04:47.235Z,99921.81
2022-10-06T00:07:14.847Z,99939.41
2022-10-06T00:09:41.894Z,99942.44
2022-10-06T00:12:09.178Z,99944.81
2022-10-06T00:14:36.574Z,99945.84
2022-10-06T00:17:03.158Z,99948.47
2022-10-06T00:19:29.759Z,99958.28
2022-10-06T00:21:56.129Z,99960.91
2022-10-06T00:24:22.682Z,99968.63
2022-10-06T00:26:49.098Z,99982.47
2022-10-06T00:29:15.881Z,99970.66
2022-10-06T00:31:42.259Z,99980.44
2022-10-06T00:34:08.791Z,99992.81
2022-10-06T00:36:35.177Z,99989.31
2022-10-06T00:39:01.694Z,99994.31
2022-10-06T00:41:28.712Z,100010.69
2022-10-06T00:43:57.003Z,100017.31
2022-10-06T00:46:35.084Z,100047.91
2022-10-06T00:49:13.536Z,100045.84
2022-10-06T00:51:46.037Z,100049.34
2022-10-06T00:54:12.699Z,100051.66
2022-10-06T00:56:40.520Z,100060.81
2022-10-06T00:59:16.427Z,100056.59
2022-10-06T01:01:51.481Z,100051.78
2022-10-06T01:04:18.423Z,100067.97
2022-10-06T01:06:50.483Z,100061.19
2022-10-06T01:09:18.127Z,100060.19
2022-10-06T01:11:47.315Z,100055.66
2022-10-06T01:14:14.805Z,100060.50
2022-10-06T01:16:44.828Z,100064.03
2022-10-06T01:19:26.547Z,100071.88
2022-10-06T01:21:54.707Z,100067.75
2022-10-06T01:24:21.680Z,100075.25
2022-10-06T01:26:51.774Z,100084.66
2022-10-06T01:29:18.947Z,100083.63
2022-10-06T01:31:45.672Z,100087.75
2022-10-06T01:34:12.176Z,100090.31
2022-10-06T01:36:41.058Z,100081.63
2022-10-06T01:39:08.058Z,100086.31
2022-10-06T01:41:34.691Z,100082.78
2022-10-06T01:44:01.280Z,100086.75
2022-10-06T01:46:29.884Z,100083.50
2022-10-06T01:48:56.466Z,100085.22
2022-10-06T01:51:22.908Z,100078.81
2022-10-06T01:53:50.502Z,100089.91
2022-10-06T01:56:17.441Z,100101.09
2022-10-06T01:58:44.144Z,100103.81
2022-10-06T02:01:10.582Z,100109.31
2022-10-06T02:03:38.887Z,100103.81
2022-10-06T02:06:06.564Z,100100.09
2022-10-06T02:08:33.650Z,100109.91
2022-10-06T02:11:09.271Z,100110.59
2022-10-06T02:13:37.157Z,100106.59
2022-10-06T02:16:06.713Z,100108.31
2022-10-06T02:18:33.924Z,100119.25
2022-10-06T02:21:01.676Z,100109.34
2022-10-06T02:23:29.203Z,100113.59
2022-10-06T02:26:06.189Z,100110.59
2022-10-06T02:28:33.616Z,100118.84
2022-10-06T02:31:08.993Z,100129.03
2022-10-06T02:33:36.147Z,100146.91
2022-10-06T02:36:03.742Z,100135.81
2022-10-06T02:38:32.230Z,100132.44
2022-10-06T02:41:00.583Z,100133.13
2022-10-06T02:43:31.467Z,100141.22
2022-10-06T02:46:02.661Z,100146.88
2022-10-06T02:48:30.246Z,100156.50
2022-10-06T02:51:01.104Z,100157.38
2022-10-06T02:53:28.443Z,100167.91
2022-10-06T02:56:04.564Z,100164.31
2022-10-06T02:58:31.991Z,100171.72
2022-10-06T03:01:12.579Z,100178.38
2022-10-06T03:03:39.325Z,100182.63
2022-10-06T03:06:21.847Z,100184.03
2022-10-06T03:08:50.240Z,100183.63
2022-10-06T03:11:19.633Z,100184.00
2022-10-06T03:13:47.088Z,100187.38
2022-10-06T03:16:24.589Z,100194.56
2022-10-06T03:18:52.838Z,100200.03
2022-10-06T03:21:22.078Z,100213.59
2022-10-06T03:23:50.824Z,100216.81
2022-10-06T03:26:20.514Z,100219.84
2022-10-06T03:28:47.051Z,100222.59
2022-10-06T03:31:15.379Z,100223.50
2022-10-06T03:33:41.893Z,100229.56
2022-10-06T03:36:12.573Z,100235.06
2022-10-06T03:38:39.323Z,100247.75
2022-10-06T03:41:09.966Z,100245.69
2022-10-06T03:43:37.627Z,100253.91
2022-10-06T03:46:05.517Z,100243.31
2022-10-06T03:48:35.024Z,100253.56
2022-10-06T03:51:05.326Z,100260.84
2022-10-06T03:53:33.436Z,100267.84
2022-10-06T03:56:14.072Z,100266.13
2022-10-06T03:58:43.173Z,100270.91
2022-10-06T04:01:12.831Z,100274.59
2022-10-06T04:03:40.124Z,100271.69
2022-10-06T04:06:09.887Z,100283.75
2022-10-06T04:08:36.287Z,100286.09
2022-10-06T04:11:11.838Z,100284.66
2022-10-06T04:13:39.281Z,100294.03
2022-10-06T04:16:16.866Z,100293.09
2022-10-06T04:18:45.039Z,100298.72
2022-10-06T04:21:12.984Z,100314.72
2022-10-06T04:23:39.626Z,100318.66
2022-10-06T04:26:09.931Z,100327.94
2022-10-06T04:28:40.269Z,100322.97
2022-10-06T04:31:13.211Z,100329.53
2022-10-06T04:33:39.813Z,100326.00
2022-10-06T04:36:08.018Z,100337.88
2022-10-06T04:38:35.857Z,100355.31
2022-10-06T04:41:20.676Z,100354.59
2022-10-06T04:43:47.966Z,100359.97
2022-10-06T04:46:40.898Z,100364.13
2022-10-06T04:49:02.039Z,100368.16
2022-10-06T04:51:29.688Z,100373.88
2022-10-06T04:53:56.098Z,100388.78
2022-10-06T04:56:31.948Z,100397.19
2022-10-06T04:58:58.609Z,100388.63
2022-10-06T05:01:31.035Z,100388.78
2022-10-06T05:03:59.934Z,100391.00
2022-10-06T05:06:38.129Z,100395.00
2022-10-06T05:09:10.062Z,100408.06
2022-10-06T05:11:38.050Z,100409.19
2022-10-06T05:14:04.799Z,100411.25
2022-10-06T05:16:31.689Z,100412.88
2022-10-06T05:18:58.821Z,100418.25
2022-10-06T05:21:28.081Z,100422.84
2022-10-06T05:23:54.745Z,100432.97
2022-10-06T05:26:27.904Z,100434.69
2022-10-06T05:28:55.142Z,100434.09
2022-10-06T05:31:28.203Z,100438.13
2022-10-06T05:33:56.239Z,100434.78
2022-10-06T05:36:25.344Z,100441.03
2022-10-06T05:38:51.814Z,100437.34
2022-10-06T05:41:23.907Z,100435.53
2022-10-06T05:43:51.354Z,100441.03
2022-10-06T05:46:20.753Z,100446.63
2022-10-06T05:48:48.736Z,100453.09
2022-10-06T05:51:16.305Z,100460.78
2022-10-06T05:53:43.177Z,100457.09
2022-10-06T05:56:13.567Z,100457.84
2022-10-06T05:58:41.944Z,100461.50
2022-10-06T06:01:09.400Z,100463.91
2022-10-06T06:03:36.110Z,100471.69
2022-10-06T06:06:03.256Z,100481.19
2022-10-06T06:08:30.414Z,100490.34
2022-10-06T06:11:07.557Z,100496.00
2022-10-06T06:13:35.521Z,100502.44
2022-10-06T06:16:06.071Z,100499.03
2022-10-06T06:18:37.430Z,100507.69
2022-10-06T06:21:06.433Z,100510.81
2022-10-06T06:23:40.416Z,100516.19
2022-10-06T06:26:09.640Z,100508.66
2022-10-06T06:28:37.190Z,100510.38
2022-10-06T06:31:17.724Z,100509.66
2022-10-06T06:33:47.448Z,100517.63
2022-10-06T06:36:18.006Z,100523.22
2022-10-06T06:38:55.668Z,100520.53
2022-10-06T06:41:28.033Z,100529.56
2022-10-06T06:43:55.619Z,100533.84
2022-10-06T06:46:26.875Z,100540.81
2022-10-06T06:48:55.504Z,100549.63
2022-10-06T06:51:24.074Z,100553.94
2022-10-06T06:53:51.230Z,100549.19
2022-10-06T06:56:17.831Z,100555.06
2022-10-06T06:58:48.892Z,100548.84
2022-10-06T07:01:18.036Z,100554.72
2022-10-06T07:04:03.393Z,100563.88
2022-10-06T07:06:31.226Z,100559.63
2022-10-06T07:08:59.332Z,100576.63
2022-10-06T07:11:30.669Z,100579.66
2022-10-06T07:14:01.399Z,100572.94
2022-10-06T07:16:48.626Z,100573.28
2022-10-06T07:19:35.412Z,100581.22
2022-10-06T07:22:24.936Z,100576.63
2022-10-06T07:25:07.458Z,100584.50
2022-10-06T07:27:35.794Z,100587.09
2022-10-06T07:30:06.445Z,100582.97
2022-10-06T07:32:32.990Z,100586.38
2022-10-06T07:35:00.747Z,100596.50
2022-10-06T07:37:28.878Z,100599.69
2022-10-06T07:39:55.603Z,100606.84
2022-10-06T07:42:22.099Z,100613.25
2022-10-06T07:45:09.505Z,100615.59
2022-10-06T07:47:38.104Z,100624.72
2022-10-06T07:50:06.983Z,100629.31
2022-10-06T07:52:36.436Z,100621.59
2022-10-06T07:55:03.266Z,100628.09
2022-10-06T07:57:34.796Z,100629.94
2022-10-06T08:00:05.159Z,100639.25
2022-10-06T08:02:34.824Z,100643.63
2022-10-06T08:05:02.995Z,100646.19
2022-10-06T08:07:29.413Z,100644.50
2022-10-06T08:09:55.997Z,100645.13
2022-10-06T08:12:34.708Z,100648.53
2022-10-06T08:15:06.028Z,100654.44
2022-10-06T08:17:35.681Z,100656.34
2022-10-06T08:20:03.414Z,100666.47
2022-10-06T08:22:30.116Z,100660.38
2022-10-06T08:25:07.652Z,100662.94
2022-10-06T08:27:36.096Z,100661.22
2022-10-06T08:30:05.103Z,100667.97
2022-10-06T08:32:32.824Z,100671.78
2022-10-06T08:34:59.317Z,100655.66
2022-10-06T08:37:27.267Z,100659.22
2022-10-06T08:39:54.531Z,100663.41
2022-10-06T08:42:31.858Z,100660.47
2022-10-06T08:45:02.767Z,100667.47
2022-10-06T08:47:34.646Z,100668.81
2022-10-06T08:50:03.974Z,100670.03
2022-10-06T08:52:45.123Z,100670.41
2022-10-06T08:55:31.563Z,100674.53
2022-10-06T08:58:23.029Z,100674.91
2022-10-06T09:00:49.559Z,100670.38
2022-10-06T09:03:24.292Z,100671.84
2022-10-06T09:05:54.166Z,100677.34
2022-10-06T09:08:53.708Z,100673.91
2022-10-06T09:11:40.007Z,100681.50
2022-10-06T09:14:30.244Z,100681.22
2022-10-06T09:17:02.641Z,100680.84
2022-10-06T09:19:46.325Z,100684.88
2022-10-06T09:22:21.811Z,100686.06
2022-10-06T09:24:55.986Z,100684.59
2022-10-06T09:27:42.585Z,100692.69
2022-10-06T09:30:12.846Z,100687.16
2022-10-06T09:32:46.818Z,100686.81
2022-10-06T09:35:20.154Z,100690.63
2022-10-06T09:37:58.265Z,100696.03
2022-10-06T09:40:36.455Z,100689.56
2022-10-06T09:43:19.889Z,100690.63
2022-10-06T09:45:46.274Z,100687.47
2022-10-06T09:48:26.988Z,100697.00
2022-10-06T09:51:15.728Z,100694.38
2022-10-06T09:53:43.934Z,100693.59
2022-10-06T09:56:21.356Z,100691.94
2022-10-06T09:59:01.690Z,100688.91
2022-10-06T10:01:31.698Z,100690.94
2022-10-06T10:04:21.390Z,100690.50
2022-10-06T10:06:48.800Z,100689.28
2022-10-06T10:09:24.097Z,100695.88
2022-10-06T10:12:29.291Z,100700.28
2022-10-06T10:15:23.127Z,100695.25
2022-10-06T10:17:56.837Z,100692.91
2022-10-06T10:20:35.287Z,100695.69
2022-10-06T10:23:19.558Z,100691.09
2022-10-06T10:26:00.023Z,100689.69
2022-10-06T10:28:50.847Z,100691.28
2022-10-06T10:31:36.276Z,100688.75
2022-10-06T10:34:23.802Z,100686.66
2022-10-06T10:37:03.378Z,100690.91
2022-10-06T10:39:39.009Z,100698.47
2022-10-06T10:42:17.046Z,100689.38
2022-10-06T10:44:53.244Z,100687.66
2022-10-06T10:47:29.642Z,100686.53
2022-10-06T10:50:06.196Z,100689.09
2022-10-06T10:52:41.149Z,100692.22
2022-10-06T10:55:18.505Z,100683.16
2022-10-06T10:57:46.273Z,100683.59
2022-10-06T11:00:21.065Z,100682.47
2022-10-06T11:02:48.350Z,100691.84
2022-10-06T11:05:36.026Z,100688.00
2022-10-06T11:08:13.096Z,100683.72
2022-10-06T11:10:58.656Z,100681.75
2022-10-06T11:13:27.952Z,100683.28
2022-10-06T11:16:32.656Z,100694.53
2022-10-06T11:19:02.485Z,100686.56
2022-10-06T11:21:47.681Z,100680.84
2022-10-06T11:24:34.919Z,100680.53
2022-10-06T11:27:21.651Z,100684.84
2022-10-06T11:30:15.357Z,100683.56
2022-10-06T11:33:07.069Z,100687.13
2022-10-06T11:35:39.502Z,100686.88
2022-10-06T11:38:15.797Z,100688.25
2022-10-06T11:40:49.846Z,100676.59
2022-10-06T11:43:26.987Z,100674.38
2022-10-06T11:46:29.667Z,100671.09
2022-10-06T11:49:29.584Z,100664.47
2022-10-06T11:52:11.463Z,100658.47
2022-10-06T11:54:51.278Z,100661.88
2022-10-06T11:57:29.340Z,100660.25
2022-10-06T12:00:17.441Z,100665.53
2022-10-06T12:02:46.104Z,100659.19
2022-10-06T12:05:55.345Z,100658.81
2022-10-06T12:08:00.090Z,100652.13
2022-10-06T12:10:29.575Z,100663.00
2022-10-06T12:13:51.431Z,100651.72
2022-10-06T12:19:53.907Z,100651.63
2022-10-06T12:22:30.000Z,100651.41
2022-10-06T12:25:19.462Z,100643.97
2022-10-06T12:28:27.721Z,100643.22
2022-10-06T12:31:06.105Z,100634.06
2022-10-06T12:33:41.001Z,100640.03
2022-10-06T12:36:30.254Z,100634.72
2022-10-06T12:39:24.003Z,100641.53
2022-10-06T12:41:59.574Z,100631.50
2022-10-06T12:44:29.277Z,100634.91
2022-10-06T12:47:01.826Z,100628.34
2022-10-06T12:49:36.987Z,100621.50
2022-10-06T12:52:18.458Z,100615.19
2022-10-06T12:55:27.597Z,100618.50
2022-10-06T12:57:54.398Z,100622.84
2022-10-06T13:00:47.688Z,100621.94
2022-10-06T13:03:25.267Z,100620.75
2022-10-06T13:05:55.123Z,100627.28
2022-10-06T13:08:23.250Z,100621.88
2022-10-06T13:10:50.056Z,100625.78
2022-10-06T13:13:24.647Z,100617.94
2022-10-06T13:15:55.840Z,100613.66
2022-10-06T13:18:23.274Z,100621.31
2022-10-06T13:20:51.324Z,100616.78
2022-10-06T13:23:30.089Z,100615.47
2022-10-06T13:25:59.624Z,100610.72
2022-10-06T13:28:30.440Z,100613.66
2022-10-06T13:31:02.948Z,100605.53
2022-10-06T13:33:38.738Z,100605.13
2022-10-06T13:36:05.927Z,100601.63
2022-10-06T13:38:34.993Z,100597.28
2022-10-06T13:41:17.546Z,100596.97
2022-10-06T13:43:49.547Z,100598.75
2022-10-06T13:46:20.507Z,100602.53
2022-10-06T13:49:30.272Z,100595.47
2022-10-06T13:52:00.940Z,100600.81
2022-10-06T13:54:40.329Z,100599.09
2022-10-06T13:57:44.116Z,100600.34
2022-10-06T14:00:31.613Z,100592.94
2022-10-06T14:03:04.338Z,100592.97
2022-10-06T14:05:41.049Z,100591.00
2022-10-06T14:08:10.238Z,100592.13
2022-10-06T14:10:56.089Z,100595.16
2022-10-06T14:13:37.625Z,100587.69
2022-10-06T14:16:10.498Z,100588.56
2022-10-06T14:18:43.746Z,100595.16
2022-10-06T14:21:44.851Z,100590.69
2022-10-06T14:24:17.998Z,100596.66
2022-10-06T14:26:45.605Z,100591.16
2022-10-06T14:29:16.212Z,100585.16
2022-10-06T14:31:43.658Z,100576.91
2022-10-06T14:34:15.639Z,100581.22
2022-10-06T14:36:44.718Z,100585.16
2022-10-06T14:39:13.650Z,100583.16
2022-10-06T14:41:40.776Z,100582.19
2022-10-06T14:44:10.186Z,100579.47
2022-10-06T14:46:37.969Z,100578.09
2022-10-06T14:49:09.777Z,100574.88
2022-10-06T14:51:37.498Z,100571.31
2022-10-06T14:54:05.053Z,100579.06
2022-10-06T14:56:34.089Z,100570.56
2022-10-06T14:59:05.445Z,100567.34
2022-10-06T15:01:37.034Z,100565.00
2022-10-06T15:04:08.973Z,100575.78
2022-10-06T15:06:54.231Z,100574.88
2022-10-06T15:09:20.646Z,100569.00
2022-10-06T15:11:47.310Z,100570.03
2022-10-06T15:14:13.917Z,100564.63
2022-10-06T15:16:42.364Z,100564.31
2022-10-06T15:19:11.895Z,100567.72
2022-10-06T15:21:45.439Z,100565.31
2022-10-06T15:24:17.191Z,100562.81
2022-10-06T15:27:04.795Z,100561.75
2022-10-06T15:29:33.057Z,100563.72
2022-10-06T15:32:00.280Z,100567.50
2022-10-06T15:34:28.949Z,100555.72
2022-10-06T15:36:57.652Z,100559.25
2022-10-06T15:39:26.919Z,100557.16
2022-10-06T15:41:53.481Z,100552.53
2022-10-06T15:44:20.733Z,100555.81
2022-10-06T15:46:52.275Z,100554.66
2022-10-06T15:49:26.530Z,100554.22
2022-10-06T15:51:59.195Z,100557.41
2022-10-06T15:54:28.110Z,100559.19
2022-10-06T15:56:57.009Z,100554.28
2022-10-06T15:59:25.357Z,100550.09
2022-10-06T16:01:57.345Z,100558.09
2022-10-06T16:04:40.254Z,100558.59
2022-10-06T16:07:08.944Z,100545.94
2022-10-06T16:09:43.295Z,100556.25
2022-10-06T16:12:11.914Z,100559.56
2022-10-06T16:14:38.681Z,100555.03
2022-10-06T16:17:06.679Z,100553.63
2022-10-06T16:19:36.867Z,100558.34
2022-10-06T16:22:05.316Z,100562.91
2022-10-06T16:24:31.847Z,100565.41
2022-10-06T16:26:59.900Z,100569.75
2022-10-06T16:29:27.836Z,100564.47
2022-10-06T16:31:54.584Z,100559.88
2022-10-06T16:34:21.694Z,100572.13
2022-10-06T16:36:48.114Z,100561.84
2022-10-06T16:39:17.591Z,100570.69
2022-10-06T16:41:44.386Z,100572.66
2022-10-06T16:44:11.276Z,100574.25
2022-10-06T16:46:37.997Z,100577.78
2022-10-06T16:49:09.922Z,100584.22
2022-10-06T16:51:46.023Z,100590.50
2022-10-06T16:54:14.771Z,100587.75
2022-10-06T16:56:43.890Z,100595.13
2022-10-06T16:59:18.561Z,100596.84
2022-10-06T17:01:46.267Z,100603.97
2022-10-06T17:04:21.047Z,100601.25
2022-10-06T17:06:55.158Z,100599.28
2022-10-06T17:09:23.816Z,100601.72
2022-10-06T17:11:55.652Z,100607.69
2022-10-06T17:14:22.651Z,100609.28
2022-10-06T17:16:51.235Z,100607.38
2022-10-06T17:19:19.410Z,100621.16
2022-10-06T17:21:48.810Z,100616.75
2022-10-06T17:24:20.631Z,100617.00
2022-10-06T17:26:48.648Z,100618.38
2022-10-06T17:29:21.620Z,100616.34
2022-10-06T17:31:50.456Z,100623.66
2022-10-06T17:34:21.437Z,100618.09
2022-10-06T17:36:51.031Z,100614.56
2022-10-06T17:39:22.440Z,100625.63
2022-10-06T17:41:51.334Z,100627.00
2022-10-06T17:44:23.408Z,100628.78
2022-10-06T17:46:52.399Z,100632.81
2022-10-06T17:49:21.031Z,100632.28
2022-10-06T17:51:48.543Z,100636.38
2022-10-06T17:54:19.006Z,100635.00
2022-10-06T17:56:50.850Z,100645.19
2022-10-06T17:59:21.571Z,100647.13
2022-10-06T18:01:48.132Z,100641.44
2022-10-06T18:04:18.275Z,100646.56
2022-10-06T18:06:46.272Z,100641.31
2022-10-06T18:09:13.333Z,100639.47
2022-10-06T18:11:43.221Z,100645.31
2022-10-06T18:14:17.687Z,100643.91
2022-10-06T18:16:56.740Z,100642.53
2022-10-06T18:19:31.581Z,100637.66
2022-10-06T18:22:01.718Z,100647.72
2022-10-06T18:24:30.360Z,100648.81
2022-10-06T18:26:59.709Z,100641.06
2022-10-06T18:29:30.617Z,100644.03
2022-10-06T18:32:14.514Z,100647.88
2022-10-06T18:37:30.279Z,100642.16
2022-10-06T18:39:57.060Z,100651.47
2022-10-06T18:42:24.039Z,100651.00
2022-10-06T18:45:09.497Z,100642.41
2022-10-06T18:47:54.376Z,100649.88
2022-10-06T18:50:20.742Z,100652.06
2022-10-06T18:52:48.364Z,100655.13
2022-10-06T18:55:14.890Z,100653.03
2022-10-06T18:57:43.535Z,100647.97
2022-10-06T19:00:10.802Z,100654.28
2022-10-06T19:02:37.208Z,100656.09
2022-10-06T19:05:04.757Z,100663.53
2022-10-06T19:07:31.209Z,100666.53
2022-10-06T19:09:57.773Z,100673.78
2022-10-06T19:12:24.317Z,100669.97
2022-10-06T19:14:51.287Z,100665.94
2022-10-06T19:17:17.882Z,100670.69
2022-10-06T19:19:54.915Z,100673.50
2022-10-06T19:22:24.622Z,100672.91
2022-10-06T19:24:52.147Z,100678.44
2022-10-06T19:27:23.917Z,100680.34
2022-10-06T19:29:54.356Z,100675.38
2022-10-06T19:32:24.732Z,100678.81
2022-10-06T19:34:52.125Z,100680.63
2022-10-06T19:37:18.837Z,100679.00
2022-10-06T19:39:47.983Z,100685.41
2022-10-06T19:42:36.176Z,100693.00
2022-10-06T19:45:04.798Z,100689.75
2022-10-06T19:47:31.224Z,100690.13
2022-10-06T19:50:02.170Z,100684.19
2022-10-06T19:52:31.345Z,100686.97
2022-10-06T19:54:58.300Z,100686.00
2022-10-06T19:57:25.064Z,100684.19
2022-10-06T19:59:51.654Z,100679.72
2022-10-06T20:02:18.043Z,100681.41
2022-10-06T20:04:45.338Z,100674.28
2022-10-06T20:07:11.844Z,100683.63
2022-10-06T20:09:38.685Z,100682.81
2022-10-06T20:12:05.840Z,100698.00
2022-10-06T20:14:32.435Z,100692.75
2022-10-06T20:16:59.035Z,100694.47
2022-10-06T20:19:26.022Z,100692.91
2022-10-06T20:21:53.278Z,100689.47
2022-10-06T20:24:25.671Z,100688.72
2022-10-06T20:26:53.225Z,100693.47
2022-10-06T20:29:25.122Z,100694.78
2022-10-06T20:31:54.291Z,100692.34
2022-10-06T20:34:23.798Z,100691.78
2022-10-06T20:36:55.664Z,100695.50
2022-10-06T20:39:42.333Z,100688.34
2022-10-06T20:42:14.930Z,100692.72
2022-10-06T20:44:42.815Z,100691.84
2022-10-06T20:47:10.603Z,100690.91
2022-10-06T20:49:37.486Z,100690.91
2022-10-06T20:52:05.003Z,100691.94
2022-10-06T20:54:35.345Z,100690.31
2022-10-06T20:57:04.462Z,100695.91
2022-10-06T20:59:32.144Z,100693.50
2022-10-06T21:02:02.331Z,100693.69
2022-10-06T21:04:29.229Z,100686.72
2022-10-06T21:06:56.086Z,100691.28
2022-10-06T21:09:24.221Z,100685.09
2022-10-06T21:11:51.117Z,100678.19
2022-10-06T21:14:18.405Z,100680.25
2022-10-06T21:16:46.633Z,100675.97
2022-10-06T21:19:15.954Z,100678.56
2022-10-06T21:21:44.045Z,100673.31
2022-10-06T21:24:10.611Z,100672.63
2022-10-06T21:26:38.757Z,100665.38
2022-10-06T21:29:05.853Z,100666.41
2022-10-06T21:31:33.298Z,100666.41
2022-10-06T21:34:01.354Z,100663.03
2022-10-06T21:36:31.611Z,100668.22
2022-10-06T21:39:00.138Z,100658.41
2022-10-06T21:41:29.577Z,100653.06
2022-10-06T21:44:07.673Z,100655.81
2022-10-06T21:46:35.546Z,100655.91
2022-10-06T21:49:05.525Z,100660.22
2022-10-06T21:51:32.719Z,100653.22
2022-10-06T21:54:04.051Z,100654.19
2022-10-06T21:56:32.889Z,100645.50
2022-10-06T21:59:00.519Z,100662.59
2022-10-06T22:01:34.150Z,100658.25
2022-10-06T22:04:02.040Z,100643.25
2022-10-06T22:06:30.713Z,100649.03
2022-10-06T22:08:58.642Z,100641.19
2022-10-06T22:11:29.476Z,100640.50
2022-10-06T22:13:58.348Z,100639.81
2022-10-06T22:16:27.868Z,100640.66
2022-10-06T22:18:54.877Z,100640.81
2022-10-06T22:21:25.778Z,100639.19
2022-10-06T22:23:55.276Z,100640.22
2022-10-06T22:26:22.543Z,100640.38
2022-10-06T22:28:50.783Z,100643.84
2022-10-06T22:31:23.195Z,100636.78
2022-10-06T22:33:55.204Z,100636.78
2022-10-06T22:36:22.280Z,100630.72
2022-10-06T22:38:48.839Z,100637.19
2022-10-06T22:41:15.489Z,100634.66
2022-10-06T22:43:42.549Z,100631.13
2022-10-06T22:46:10.548Z,100628.56
2022-10-06T22:48:37.741Z,100625.97
2022-10-06T22:51:05.356Z,100626.75
2022-10-06T22:53:32.023Z,100626.84
2022-10-06T22:56:02.280Z,100621.41
2022-10-06T22:58:29.005Z,100624.25
2022-10-06T23:00:55.859Z,100620.13
2022-10-06T23:03:23.190Z,100608.75
2022-10-06T23:05:57.409Z,100608.06
2022-10-06T23:08:25.097Z,100605.66
2022-10-06T23:10:51.895Z,100597.13
2022-10-06T23:13:19.057Z,100597.28
2022-10-06T23:15:46.087Z,100597.34
2022-10-06T23:18:13.001Z,100588.50
2022-10-06T23:20:39.642Z,100597.34
2022-10-06T23:23:06.349Z,100589.44
2022-10-06T23:25:37.545Z,100594.78
2022-10-06T23:28:04.824Z,100588.59
2022-10-06T23:30:31.375Z,100582.41
2022-10-06T23:32:57.932Z,100579.66
2022-10-06T23:35:24.476Z,100575.28
2022-10-06T23:37:51.185Z,100578.78
2022-10-06T23:40:17.761Z,100570.09
2022-10-06T23:42:44.208Z,100574.50
2022-10-06T23:45:10.908Z,100566.50
2022-10-06T23:47:37.344Z,100568.47
2022-10-06T23:50:04.216Z,100563.22
2022-10-06T23:52:30.786Z,100567.72
2022-10-06T23:54:57.343Z,100568.72
2022-10-06T23:57:23.825Z,100567.00
2022-10-06T23:59:50.438Z,100570.91
